createdAt,value
2018-09-20T00:00:46.602Z,10.97
2018-09-20T00:03:15.361Z,17.47
2018-09-20T00:05:44.009Z,17.30
2018-09-20T00:08:12.693Z,12.13
2018-09-20T00:10:41.390Z,14.37
2018-09-20T00:13:10.082Z,18.23
2018-09-20T00:15:38.722Z,17.33
2018-09-20T00:18:07.618Z,13.83
2018-09-20T00:20:36.277Z,16.63
2018-09-20T00:23:04.958Z,17.23
2018-09-20T00:25:33.694Z,15.53
2018-09-20T00:28:02.364Z,18.33
2018-09-20T00:30:31.074Z,15.33
2018-09-20T00:32:59.783Z,15.07
2018-09-20T00:35:28.505Z,13.30
2018-09-20T00:37:57.159Z,13.40
2018-09-20T00:40:25.850Z,10.00
2018-09-20T00:42:54.520Z,11.37
2018-09-20T00:45:23.247Z,11.33
2018-09-20T00:47:51.943Z,12.80
2018-09-20T00:50:20.694Z,12.07
2018-09-20T00:52:49.351Z,10.53
2018-09-20T00:55:18.038Z,13.57
2018-09-20T00:57:46.723Z,16.10
2018-09-20T01:00:15.444Z,13.60
2018-09-20T01:02:44.171Z,15.30
2018-09-20T01:05:12.877Z,16.83
2018-09-20T01:07:41.690Z,20.47
2018-09-20T01:10:10.431Z,16.67
2018-09-20T01:12:39.100Z,15.90
2018-09-20T01:15:08.257Z,17.67
2018-09-20T01:17:37.247Z,18.00
2018-09-20T01:20:06.044Z,16.57
2018-09-20T01:22:34.760Z,16.40
2018-09-20T01:25:03.520Z,17.17
2018-09-20T01:27:32.182Z,15.47
2018-09-20T01:30:00.883Z,14.83
2018-09-20T01:32:29.612Z,16.27
2018-09-20T01:34:58.260Z,16.47
2018-09-20T01:37:26.969Z,17.13
2018-09-20T01:39:55.618Z,16.67
2018-09-20T01:42:24.300Z,16.80
2018-09-20T01:44:52.981Z,15.43
2018-09-20T01:47:21.632Z,14.47
2018-09-20T01:49:50.322Z,17.00
2018-09-20T01:52:18.991Z,16.93
2018-09-20T01:54:47.705Z,17.47
2018-09-20T01:57:16.434Z,16.43
2018-09-20T01:59:45.122Z,19.87
2018-09-20T02:02:13.838Z,14.60
2018-09-20T02:04:42.502Z,14.23
2018-09-20T02:07:11.265Z,12.70
2018-09-20T02:09:39.920Z,16.67
2018-09-20T02:12:08.613Z,16.60
2018-09-20T02:14:37.320Z,19.23
2018-09-20T02:17:06.046Z,15.70
2018-09-20T02:19:34.701Z,18.47
2018-09-20T02:22:03.419Z,17.30
2018-09-20T02:24:32.090Z,17.60
2018-09-20T02:27:00.790Z,19.70
2018-09-20T02:29:29.509Z,16.20
2018-09-20T02:31:58.170Z,16.93
2018-09-20T02:34:26.838Z,14.90
2018-09-20T02:36:55.545Z,16.93
2018-09-20T02:39:24.269Z,15.80
2018-09-20T02:41:53.001Z,19.77
2018-09-20T02:44:21.702Z,17.80
2018-09-20T02:46:50.417Z,15.10
2018-09-20T02:49:19.106Z,19.43
2018-09-20T02:51:47.846Z,16.57
2018-09-20T02:54:16.553Z,11.37
2018-09-20T02:56:45.225Z,18.47
2018-09-20T02:59:13.943Z,15.37
2018-09-20T03:01:42.637Z,15.27
2018-09-20T03:04:11.315Z,16.67
2018-09-20T03:06:39.973Z,15.27
2018-09-20T03:09:10.251Z,15.93
2018-09-20T03:11:38.911Z,13.30
2018-09-20T03:14:07.911Z,16.10
2018-09-20T03:16:36.560Z,16.70
2018-09-20T03:19:05.742Z,15.83
2018-09-20T03:21:34.357Z,14.03
2018-09-20T03:24:03.034Z,16.03
2018-09-20T03:26:31.748Z,10.40
2018-09-20T03:29:00.405Z,13.60
2018-09-20T03:31:29.056Z,13.53
2018-09-20T03:33:57.733Z,15.23
2018-09-20T03:36:26.344Z,14.30
2018-09-20T03:38:55.002Z,14.10
2018-09-20T03:41:23.644Z,10.77
2018-09-20T03:43:52.370Z,14.27
2018-09-20T03:46:21.039Z,14.37
2018-09-20T03:48:49.841Z,12.20
2018-09-20T03:51:18.544Z,14.07
2018-09-20T03:53:47.234Z,11.43
2018-09-20T03:56:15.876Z,15.47
2018-09-20T03:58:44.581Z,12.87
2018-09-20T04:01:13.204Z,12.83
2018-09-20T04:03:41.904Z,18.53
2018-09-20T04:06:10.529Z,18.63
2018-09-20T04:08:39.238Z,12.30
2018-09-20T04:11:07.868Z,14.30
2018-09-20T04:13:36.546Z,11.40
2018-09-20T04:16:05.263Z,18.73
2018-09-20T04:18:33.940Z,11.50
2018-09-20T04:21:02.574Z,16.43
2018-09-20T04:23:31.212Z,13.27
2018-09-20T04:25:59.881Z,18.60
2018-09-20T04:28:28.506Z,21.77
2018-09-20T04:30:57.212Z,15.83
2018-09-20T04:33:25.863Z,22.77
2018-09-20T04:35:54.540Z,14.77
2018-09-20T04:38:23.161Z,15.70
2018-09-20T04:40:51.810Z,15.07
2018-09-20T04:43:20.512Z,20.60
2018-09-20T04:45:49.299Z,15.07
2018-09-20T04:48:17.981Z,16.47
2018-09-20T04:50:46.667Z,13.07
2018-09-20T04:53:15.397Z,14.57
2018-09-20T04:55:44.028Z,17.53
2018-09-20T04:58:12.729Z,13.77
2018-09-20T05:00:41.399Z,15.90
2018-09-20T05:03:10.121Z,12.60
2018-09-20T05:05:38.801Z,11.23
2018-09-20T05:08:07.499Z,13.97
2018-09-20T05:10:36.320Z,13.53
2018-09-20T05:13:05.061Z,9.90
2018-09-20T05:15:33.803Z,16.57
2018-09-20T05:18:02.621Z,13.87
2018-09-20T05:20:31.387Z,16.00
2018-09-20T05:23:00.060Z,12.43
2018-09-20T05:25:28.757Z,11.33
2018-09-20T05:27:57.440Z,10.90
2018-09-20T05:30:26.149Z,13.37
2018-09-20T05:32:54.880Z,13.93
2018-09-20T05:35:23.614Z,11.93
2018-09-20T05:37:52.304Z,12.07
2018-09-20T05:40:20.996Z,11.67
2018-09-20T05:42:50.027Z,18.17
2018-09-20T05:45:18.732Z,15.77
2018-09-20T05:47:47.592Z,11.57
2018-09-20T05:50:16.316Z,11.70
2018-09-20T05:52:45.049Z,11.23
2018-09-20T05:55:14.058Z,14.47
2018-09-20T05:57:42.693Z,14.13
2018-09-20T06:00:11.421Z,17.13
2018-09-20T06:02:40.167Z,16.47
2018-09-20T06:05:08.903Z,16.03
2018-09-20T06:07:37.606Z,16.07
2018-09-20T06:10:06.526Z,12.77
2018-09-20T06:12:35.229Z,14.37
2018-09-20T06:15:04.041Z,14.53
2018-09-20T06:17:32.737Z,15.93
2018-09-20T06:20:01.445Z,16.30
2018-09-20T06:22:30.064Z,19.40
2018-09-20T06:24:58.744Z,15.37
2018-09-20T06:27:27.418Z,17.13
2018-09-20T06:29:56.114Z,17.57
2018-09-20T06:32:24.777Z,16.57
2018-09-20T06:34:53.541Z,16.63
2018-09-20T06:37:22.144Z,14.03
2018-09-20T06:39:50.774Z,13.40
2018-09-20T06:42:19.436Z,13.43
2018-09-20T06:44:48.054Z,15.43
2018-09-20T06:47:16.720Z,15.53
2018-09-20T06:49:45.392Z,16.07
2018-09-20T06:52:14.044Z,13.83
2018-09-20T06:54:42.686Z,12.80
2018-09-20T06:57:11.371Z,15.60
2018-09-20T06:59:40.014Z,18.30
2018-09-20T07:02:08.737Z,17.03
2018-09-20T07:04:37.412Z,13.83
2018-09-20T07:07:06.026Z,14.30
2018-09-20T07:09:34.741Z,12.07
2018-09-20T07:12:03.358Z,14.50
2018-09-20T07:14:31.974Z,12.30
2018-09-20T07:17:00.691Z,15.93
2018-09-20T07:19:29.328Z,11.37
2018-09-20T07:21:58.122Z,12.20
2018-09-20T07:24:26.798Z,14.57
2018-09-20T07:26:55.520Z,11.87
2018-09-20T07:29:24.258Z,12.33
2018-09-20T07:31:52.977Z,13.80
2018-09-20T07:34:21.644Z,14.37
2018-09-20T07:36:50.314Z,13.03
2018-09-20T07:39:19.021Z,11.90
2018-09-20T07:41:47.709Z,11.80
2018-09-20T07:44:16.413Z,9.37
2018-09-20T07:46:45.080Z,11.23
2018-09-20T07:49:13.801Z,11.03
2018-09-20T07:51:42.470Z,12.63
2018-09-20T07:54:17.842Z,13.97
2018-09-20T07:56:46.604Z,11.17
2018-09-20T07:59:15.225Z,12.90
2018-09-20T08:01:44.047Z,11.93
2018-09-20T08:04:12.678Z,12.40
2018-09-20T08:06:41.356Z,10.67
2018-09-20T08:09:11.476Z,11.47
2018-09-20T08:11:40.145Z,9.87
2018-09-20T08:14:08.817Z,11.80
2018-09-20T08:16:37.504Z,11.97
2018-09-20T08:19:06.321Z,11.73
2018-09-20T08:21:35.045Z,8.87
2018-09-20T08:24:03.719Z,10.00
2018-09-20T08:26:32.387Z,10.77
2018-09-20T08:29:01.082Z,11.10
2018-09-20T08:31:29.766Z,11.17
2018-09-20T08:33:58.441Z,11.67
2018-09-20T08:36:27.131Z,17.43
2018-09-20T08:38:55.800Z,12.13
2018-09-20T08:41:24.426Z,11.03
2018-09-20T08:43:53.054Z,8.97
2018-09-20T08:46:21.729Z,9.77
2018-09-20T08:48:50.382Z,13.37
2018-09-20T08:51:19.031Z,10.53
2018-09-20T08:53:47.708Z,10.30
2018-09-20T08:56:16.386Z,9.77
2018-09-20T08:58:45.014Z,10.20
2018-09-20T09:01:13.658Z,9.87
2018-09-20T09:03:42.353Z,9.33
2018-09-20T09:06:11.075Z,11.50
2018-09-20T09:08:39.707Z,13.07
2018-09-20T09:11:08.367Z,10.70
2018-09-20T09:13:37.045Z,11.17
2018-09-20T09:16:05.732Z,10.67
2018-09-20T09:18:34.373Z,9.07
2018-09-20T09:21:03.058Z,10.60
2018-09-20T09:23:31.710Z,9.87
2018-09-20T09:26:00.347Z,10.53
2018-09-20T09:28:28.973Z,11.90
2018-09-20T09:30:57.725Z,7.17
2018-09-20T09:33:26.430Z,13.50
2018-09-20T09:35:55.123Z,10.30
2018-09-20T09:38:23.839Z,9.47
2018-09-20T09:40:52.548Z,10.57
2018-09-20T09:43:21.197Z,8.37
2018-09-20T09:45:49.894Z,11.37
2018-09-20T09:48:18.813Z,7.47
2018-09-20T09:50:47.527Z,7.97
2018-09-20T09:53:16.212Z,9.10
2018-09-20T09:55:44.939Z,10.33
2018-09-20T09:58:13.597Z,11.07
2018-09-20T10:00:42.841Z,11.03
2018-09-20T10:03:11.522Z,11.93
2018-09-20T10:05:40.188Z,11.97
2018-09-20T10:08:08.907Z,10.77
2018-09-20T10:10:37.553Z,8.87
2018-09-20T10:13:06.554Z,9.03
2018-09-20T10:15:35.479Z,11.47
2018-09-20T10:18:04.173Z,9.80
2018-09-20T10:20:32.868Z,11.40
2018-09-20T10:23:01.573Z,11.87
2018-09-20T10:25:30.280Z,11.17
2018-09-20T10:27:59.041Z,16.13
2018-09-20T10:30:27.783Z,11.03
2018-09-20T10:32:56.431Z,9.70
2018-09-20T10:35:25.071Z,7.90
2018-09-20T10:37:54.129Z,10.50
2018-09-20T10:40:22.920Z,12.20
2018-09-20T10:42:51.548Z,10.60
2018-09-20T10:45:20.525Z,11.03
2018-09-20T10:47:49.266Z,7.53
2018-09-20T10:50:18.043Z,11.37
2018-09-20T10:52:46.721Z,8.60
2018-09-20T10:55:15.438Z,9.27
2018-09-20T10:57:44.232Z,11.90
2018-09-20T11:00:12.896Z,10.90
2018-09-20T11:02:41.721Z,6.50
2018-09-20T11:05:17.127Z,10.97
2018-09-20T11:07:45.980Z,12.17
2018-09-20T11:10:14.753Z,11.47
2018-09-20T11:12:43.442Z,10.13
2018-09-20T11:15:12.163Z,7.90
2018-09-20T11:17:40.906Z,11.00
2018-09-20T11:20:09.577Z,8.97
2018-09-20T11:22:38.370Z,9.37
2018-09-20T11:25:07.122Z,10.93
2018-09-20T11:27:35.777Z,8.83
2018-09-20T11:30:04.633Z,10.90
2018-09-20T11:32:33.344Z,10.87
2018-09-20T11:35:02.006Z,9.00
2018-09-20T11:37:30.684Z,11.90
2018-09-20T11:39:59.340Z,9.37
2018-09-20T11:42:28.221Z,7.53
2018-09-20T11:44:57.056Z,8.87
2018-09-20T11:47:25.749Z,10.00
2018-09-20T11:49:54.431Z,9.80
2018-09-20T11:52:23.135Z,7.93
2018-09-20T11:54:52.052Z,10.10
2018-09-20T11:57:21.098Z,11.77
2018-09-20T11:59:50.054Z,9.90
2018-09-20T12:02:18.784Z,10.20
2018-09-20T12:04:47.583Z,9.47
2018-09-20T12:07:16.364Z,10.03
2018-09-20T12:09:45.258Z,9.77
2018-09-20T12:12:13.974Z,9.60
2018-09-20T12:14:43.137Z,9.60
2018-09-20T12:17:11.928Z,9.87
2018-09-20T12:19:40.914Z,10.00
2018-09-20T12:22:10.209Z,8.97
2018-09-20T12:24:38.975Z,11.20
2018-09-20T12:27:07.732Z,8.13
2018-09-20T12:29:36.439Z,6.13
2018-09-20T12:32:05.173Z,7.27
2018-09-20T12:34:33.861Z,8.83
2018-09-20T12:37:02.564Z,4.27
2018-09-20T12:39:31.256Z,7.60
2018-09-20T12:42:00.015Z,10.17
2018-09-20T12:44:28.667Z,10.53
2018-09-20T12:46:57.389Z,7.00
2018-09-20T12:49:26.017Z,9.83
2018-09-20T12:51:54.715Z,8.87
2018-09-20T12:54:23.381Z,9.03
2018-09-20T12:56:52.128Z,7.93
2018-09-20T12:59:20.789Z,8.77
2018-09-20T13:01:49.477Z,5.40
2018-09-20T13:04:18.171Z,7.33
2018-09-20T13:06:46.895Z,9.10
2018-09-20T13:09:15.620Z,6.50
2018-09-20T13:11:44.319Z,7.23
2018-09-20T13:14:13.001Z,7.30
2018-09-20T13:16:41.709Z,6.43
2018-09-20T13:19:10.352Z,6.77
2018-09-20T13:21:39.066Z,12.47
2018-09-20T13:24:07.727Z,6.60
2018-09-20T13:26:36.431Z,8.90
2018-09-20T13:29:05.154Z,8.87
2018-09-20T13:31:33.831Z,10.00
2018-09-20T13:34:02.524Z,10.83
2018-09-20T13:36:31.221Z,6.10
2018-09-20T13:39:00.014Z,9.20
2018-09-20T13:41:28.716Z,8.13
2018-09-20T13:43:57.454Z,6.30
2018-09-20T13:46:26.146Z,8.13
2018-09-20T13:48:54.857Z,6.40
2018-09-20T13:51:23.540Z,7.97
2018-09-20T13:53:52.245Z,7.67
2018-09-20T13:56:20.931Z,11.20
2018-09-20T13:58:49.635Z,8.53
2018-09-20T14:01:18.625Z,6.40
2018-09-20T14:03:47.343Z,7.27
2018-09-20T14:06:16.150Z,5.57
2018-09-20T14:08:44.922Z,5.77
2018-09-20T14:11:13.677Z,7.97
2018-09-20T14:13:42.389Z,12.97
2018-09-20T14:16:11.131Z,5.80
2018-09-20T14:18:40.076Z,8.30
2018-09-20T14:21:08.883Z,8.10
2018-09-20T14:23:37.633Z,8.70
2018-09-20T14:26:06.401Z,11.00
2018-09-20T14:28:35.177Z,11.17
2018-09-20T14:31:03.869Z,7.90
2018-09-20T14:33:32.519Z,8.43
2018-09-20T14:36:01.264Z,7.23
2018-09-20T14:38:29.968Z,8.80
2018-09-20T14:40:58.695Z,7.37
2018-09-20T14:43:27.381Z,9.20
2018-09-20T14:45:56.093Z,10.20
2018-09-20T14:48:24.766Z,9.50
2018-09-20T14:50:53.520Z,10.70
2018-09-20T14:53:22.259Z,8.20
2018-09-20T14:55:50.969Z,5.07
2018-09-20T14:58:19.685Z,8.27
2018-09-20T15:00:48.788Z,7.43
2018-09-20T15:03:17.617Z,7.70
2018-09-20T15:05:46.266Z,8.83
2018-09-20T15:08:14.992Z,7.40
2018-09-20T15:10:43.654Z,6.20
2018-09-20T15:13:12.281Z,9.03
2018-09-20T15:15:41.016Z,6.70
2018-09-20T15:18:09.681Z,9.10
2018-09-20T15:20:38.338Z,10.70
2018-09-20T15:23:07.002Z,6.47
2018-09-20T15:25:35.649Z,8.40
2018-09-20T15:28:04.337Z,8.43
2018-09-20T15:30:33.018Z,9.13
2018-09-20T15:33:01.772Z,9.30
2018-09-20T15:35:30.487Z,10.07
2018-09-20T15:37:59.146Z,8.40
2018-09-20T15:40:27.796Z,13.13
2018-09-20T15:42:56.425Z,11.03
2018-09-20T15:45:25.098Z,9.83
2018-09-20T15:47:53.831Z,7.37
2018-09-20T15:50:22.442Z,8.30
2018-09-20T15:52:51.164Z,10.47
2018-09-20T15:55:19.864Z,7.93
2018-09-20T15:57:48.514Z,9.57
2018-09-20T16:00:17.196Z,6.70
2018-09-20T16:02:45.842Z,8.03
2018-09-20T16:05:14.544Z,9.27
2018-09-20T16:07:43.313Z,5.93
2018-09-20T16:10:12.013Z,9.57
2018-09-20T16:12:40.702Z,9.03
2018-09-20T16:15:09.380Z,13.70
2018-09-20T16:17:38.109Z,7.67
2018-09-20T16:20:07.590Z,8.27
2018-09-20T16:22:36.444Z,7.47
2018-09-20T16:25:05.607Z,9.57
2018-09-20T16:27:34.528Z,9.87
2018-09-20T16:30:13.298Z,7.07
2018-09-20T16:34:53.885Z,8.57
2018-09-20T16:37:43.622Z,7.27
2018-09-20T16:40:13.302Z,9.73
2018-09-20T16:42:43.785Z,7.90
2018-09-20T16:45:12.489Z,9.07
2018-09-20T16:47:41.207Z,8.10
2018-09-20T16:50:09.865Z,5.40
2018-09-20T16:52:39.011Z,4.93
2018-09-20T16:55:07.687Z,8.77
2018-09-20T16:57:36.329Z,9.13
2018-09-20T17:00:06.701Z,7.87
2018-09-20T17:02:35.457Z,10.07
2018-09-20T17:05:04.310Z,10.03
2018-09-20T17:07:33.000Z,7.40
2018-09-20T17:10:01.740Z,14.97
2018-09-20T17:12:30.379Z,8.73
2018-09-20T17:14:59.260Z,16.70
2018-09-20T17:17:27.838Z,11.40
2018-09-20T17:19:56.570Z,6.03
2018-09-20T17:22:25.284Z,9.13
2018-09-20T17:24:53.937Z,7.87
2018-09-20T17:27:56.189Z,11.33
2018-09-20T17:30:24.840Z,6.10
2018-09-20T17:32:53.564Z,25.13
2018-09-20T17:35:22.473Z,20.47
2018-09-20T17:37:51.814Z,8.87
2018-09-20T17:40:21.533Z,12.60
2018-09-20T17:42:52.458Z,8.43
2018-09-20T17:45:21.108Z,7.73
2018-09-20T17:47:49.793Z,7.73
2018-09-20T17:50:18.460Z,14.03
2018-09-20T17:52:47.808Z,18.40
2018-09-20T17:55:16.770Z,15.80
2018-09-20T17:57:45.978Z,11.53
2018-09-20T18:00:14.691Z,12.70
2018-09-20T18:02:43.431Z,13.10
2018-09-20T18:05:12.223Z,14.03
2018-09-20T18:07:40.977Z,8.40
2018-09-20T18:10:09.640Z,14.10
2018-09-20T18:12:38.333Z,8.97
2018-09-20T18:15:07.104Z,7.70
2018-09-20T18:17:35.886Z,11.23
2018-09-20T18:20:04.614Z,10.60
2018-09-20T18:22:33.379Z,7.63
2018-09-20T18:25:02.098Z,9.77
2018-09-20T18:27:30.755Z,10.33
2018-09-20T18:29:59.438Z,13.67
2018-09-20T18:32:28.130Z,8.63
2018-09-20T18:34:56.817Z,8.67
2018-09-20T18:37:25.545Z,5.93
2018-09-20T18:39:54.182Z,7.50
2018-09-20T18:42:22.898Z,9.23
2018-09-20T18:44:51.538Z,9.33
2018-09-20T18:47:20.174Z,11.60
2018-09-20T18:49:48.959Z,9.17
2018-09-20T18:52:17.686Z,8.77
2018-09-20T18:54:46.370Z,8.07
2018-09-20T18:57:15.110Z,11.23
2018-09-20T18:59:43.785Z,9.30
2018-09-20T19:02:12.481Z,8.47
2018-09-20T19:04:41.118Z,11.13
2018-09-20T19:07:10.896Z,14.00
2018-09-20T19:09:40.151Z,9.77
2018-09-20T19:12:08.824Z,11.80
2018-09-20T19:14:37.561Z,9.93
2018-09-20T19:17:06.314Z,8.27
2018-09-20T19:19:34.968Z,10.90
2018-09-20T19:22:03.681Z,9.37
2018-09-20T19:24:32.320Z,11.00
2018-09-20T19:27:00.957Z,13.23
2018-09-20T19:29:29.654Z,7.87
2018-09-20T19:31:58.377Z,7.57
2018-09-20T19:34:27.006Z,8.87
2018-09-20T19:36:55.722Z,12.07
2018-09-20T19:39:24.431Z,11.63
2018-09-20T19:41:53.138Z,9.27
2018-09-20T19:44:21.813Z,10.93
2018-09-20T19:46:50.506Z,9.37
2018-09-20T19:49:19.152Z,11.50
2018-09-20T19:51:47.912Z,8.60
2018-09-20T19:54:16.562Z,9.50
2018-09-20T19:56:45.238Z,8.60
2018-09-20T19:59:13.974Z,14.70
2018-09-20T20:01:42.683Z,11.80
2018-09-20T20:04:11.346Z,12.40
2018-09-20T20:06:40.082Z,11.97
2018-09-20T20:09:11.264Z,9.03
2018-09-20T20:11:40.496Z,10.13
2018-09-20T20:14:09.167Z,10.67
2018-09-20T20:16:38.098Z,9.60
2018-09-20T20:19:07.149Z,9.03
2018-09-20T20:21:35.882Z,9.93
2018-09-20T20:24:04.622Z,9.60
2018-09-20T20:26:33.258Z,8.20
2018-09-20T20:29:01.927Z,6.87
2018-09-20T20:31:30.567Z,8.30
2018-09-20T20:33:59.455Z,7.40
2018-09-20T20:36:28.322Z,10.07
2018-09-20T20:38:57.285Z,10.80
2018-09-20T20:41:25.961Z,10.97
2018-09-20T20:43:55.077Z,10.63
2018-09-20T20:46:23.733Z,10.13
2018-09-20T20:48:52.423Z,10.67
2018-09-20T20:51:21.102Z,12.10
2018-09-20T20:53:49.807Z,12.07
2018-09-20T20:56:19.232Z,13.27
2018-09-20T20:58:48.067Z,10.10
2018-09-20T21:01:20.776Z,10.17
2018-09-20T21:03:51.187Z,11.67
2018-09-20T21:06:20.024Z,7.67
2018-09-20T21:08:48.800Z,7.90
2018-09-20T21:11:17.583Z,7.37
2018-09-20T21:13:46.244Z,9.20
2018-09-20T21:16:14.977Z,9.47
2018-09-20T21:18:43.824Z,8.20
2018-09-20T21:21:12.544Z,9.43
2018-09-20T21:23:41.216Z,8.67
2018-09-20T21:26:09.917Z,8.43
2018-09-20T21:28:38.588Z,8.30
2018-09-20T21:31:07.229Z,7.10
2018-09-20T21:33:35.878Z,5.93
2018-09-20T21:36:04.541Z,7.77
2018-09-20T21:38:33.242Z,5.83
2018-09-20T21:41:01.954Z,7.40
2018-09-20T21:43:31.539Z,7.77
2018-09-20T21:46:00.188Z,6.77
2018-09-20T21:48:28.974Z,6.73
2018-09-20T21:50:57.668Z,6.13
2018-09-20T21:53:26.369Z,7.50
2018-09-20T21:55:55.061Z,7.90
2018-09-20T21:58:23.732Z,8.80
2018-09-20T22:00:56.554Z,7.67
2018-09-20T22:03:25.209Z,6.83
2018-09-20T22:05:53.828Z,9.73
2018-09-20T22:08:22.978Z,6.47
2018-09-20T22:10:51.690Z,5.47
2018-09-20T22:13:20.332Z,4.93
2018-09-20T22:15:48.975Z,6.00
2018-09-20T22:18:17.703Z,6.73
2018-09-20T22:20:46.479Z,8.90
2018-09-20T22:23:15.230Z,8.57
2018-09-20T22:25:43.927Z,7.07
2018-09-20T22:28:12.633Z,6.43
2018-09-20T22:30:41.875Z,6.57
2018-09-20T22:33:10.577Z,7.03
2018-09-20T22:35:39.325Z,8.37
2018-09-20T22:38:07.990Z,6.70
2018-09-20T22:40:36.688Z,9.17
2018-09-20T22:43:05.454Z,8.17
2018-09-20T22:45:34.147Z,6.50
2018-09-20T22:48:02.794Z,7.37
2018-09-20T22:50:31.464Z,5.27
2018-09-20T22:53:00.096Z,5.80
2018-09-20T22:55:28.909Z,7.57
2018-09-20T22:57:57.525Z,7.50
2018-09-20T23:00:26.164Z,8.57
2018-09-20T23:02:56.164Z,6.37
2018-09-20T23:05:25.010Z,9.13
2018-09-20T23:07:53.688Z,6.77
2018-09-20T23:10:22.457Z,10.20
2018-09-20T23:12:51.151Z,7.60
2018-09-20T23:15:19.886Z,8.00
2018-09-20T23:17:48.579Z,9.23
2018-09-20T23:20:17.312Z,7.77
2018-09-20T23:22:46.026Z,8.10
2018-09-20T23:25:14.689Z,7.63
2018-09-20T23:27:43.429Z,6.93
2018-09-20T23:30:12.111Z,7.30
2018-09-20T23:32:41.096Z,6.63
2018-09-20T23:35:09.833Z,8.53
2018-09-20T23:37:38.543Z,9.73
2018-09-20T23:40:07.311Z,8.13
2018-09-20T23:42:36.032Z,8.63
2018-09-20T23:45:04.785Z,7.33
2018-09-20T23:47:33.451Z,8.47
2018-09-20T23:50:02.184Z,10.00
2018-09-20T23:52:30.866Z,5.07
2018-09-20T23:54:59.557Z,5.97
2018-09-20T23:57:28.237Z,7.53
2018-09-20T23:59:56.919Z,6.57
